Terminal Aerodrome Forecast
Issued by NWS Glasgow, MT

Home | Current Version | Previous Version | Text Only | Print | Product List | Glossary On
Versions: 1 2 3 4 5 6 7 8 9 10 11 12 13 14 15 16 17
000
FTUS45 KGGW 291723
TAFGGW
TAF
KGGW 291723Z 2918/3018 VRB04KT 3SM FU BKN025
     FM292100 16010KT 3SM FU BKN030
     FM300300 19007KT 4SM FU BKN050
     FM300900 33007KT 4SM -TSRA FU BKN040CB=

USA.gov is the U.S. government's official web portal to all federal, state and local government web resources and services.